sensor_id;sensor_type;location;lat;lon;timestamp;pressure;altitude;pressure_sealevel;temperature
82006;BMP280;71529;47.484;19.064;2023-07-28T00:00:36;100189.34;;;20.82
82006;BMP280;71529;47.484;19.064;2023-07-28T00:03:04;100190.84;;;20.83
82006;BMP280;71529;47.484;19.064;2023-07-28T00:05:34;100186.50;;;20.86
82006;BMP280;71529;47.484;19.064;2023-07-28T00:08:03;100194.13;;;20.78
82006;BMP280;71529;47.484;19.064;2023-07-28T00:10:31;100189.34;;;20.82
82006;BMP280;71529;47.484;19.064;2023-07-28T00:12:59;100192.34;;;20.84
82006;BMP280;71529;47.484;19.064;2023-07-28T00:15:29;100190.84;;;20.83
82006;BMP280;71529;47.484;19.064;2023-07-28T00:17:57;100185.88;;;20.82
82006;BMP280;71529;47.484;19.064;2023-07-28T00:20:26;100184.59;;;20.74
82006;BMP280;71529;47.484;19.064;2023-07-28T00:22:55;100174.50;;;20.74
82006;BMP280;71529;47.484;19.064;2023-07-28T00:25:24;100174.19;;;20.72
82006;BMP280;71529;47.484;19.064;2023-07-28T00:27:52;100174.28;;;20.81
82006;BMP280;71529;47.484;19.064;2023-07-28T00:30:20;100181.59;;;20.71
82006;BMP280;71529;47.484;19.064;2023-07-28T00:32:48;100180.47;;;20.91
82006;BMP280;71529;47.484;19.064;2023-07-28T00:35:17;100185.41;;;20.83
82006;BMP280;71529;47.484;19.064;2023-07-28T00:37:45;100178.28;;;20.77
82006;BMP280;71529;47.484;19.064;2023-07-28T00:40:14;100177.84;;;20.78
82006;BMP280;71529;47.484;19.064;2023-07-28T00:42:42;100178.78;;;20.84
82006;BMP280;71529;47.484;19.064;2023-07-28T00:45:10;100176.66;;;20.79
82006;BMP280;71529;47.484;19.064;2023-07-28T00:47:38;100167.00;;;20.78
82006;BMP280;71529;47.484;19.064;2023-07-28T00:50:07;100173.59;;;20.68
82006;BMP280;71529;47.484;19.064;2023-07-28T00:52:37;100176.44;;;20.64
82006;BMP280;71529;47.484;19.064;2023-07-28T00:55:06;100166.13;;;20.59
82006;BMP280;71529;47.484;19.064;2023-07-28T00:57:36;100161.94;;;20.67
82006;BMP280;71529;47.484;19.064;2023-07-28T01:00:07;100164.94;;;20.60
82006;BMP280;71529;47.484;19.064;2023-07-28T01:02:35;100164.06;;;20.63
82006;BMP280;71529;47.484;19.064;2023-07-28T01:05:04;100163.97;;;20.54
82006;BMP280;71529;47.484;19.064;2023-07-28T01:07:37;100164.06;;;20.63
82006;BMP280;71529;47.484;19.064;2023-07-28T01:10:10;100159.53;;;20.69
82006;BMP280;71529;47.484;19.064;2023-07-28T01:12:40;100160.38;;;20.57
82006;BMP280;71529;47.484;19.064;2023-07-28T01:15:09;100160.88;;;20.65
82006;BMP280;71529;47.484;19.064;2023-07-28T01:17:37;100158.50;;;20.67
82006;BMP280;71529;47.484;19.064;2023-07-28T01:20:06;100160.75;;;20.68
82006;BMP280;71529;47.484;19.064;2023-07-28T01:22:48;100163.59;;;20.65
82006;BMP280;71529;47.484;19.064;2023-07-28T01:25:22;100159.69;;;20.66
82006;BMP280;71529;47.484;19.064;2023-07-28T01:27:56;100154.75;;;20.74
82006;BMP280;71529;47.484;19.064;2023-07-28T01:30:25;100161.19;;;20.67
82006;BMP280;71529;47.484;19.064;2023-07-28T01:32:54;100163.69;;;20.83
82006;BMP280;71529;47.484;19.064;2023-07-28T01:35:22;100150.00;;;20.65
82006;BMP280;71529;47.484;19.064;2023-07-28T01:37:50;100151.91;;;20.77
82006;BMP280;71529;47.484;19.064;2023-07-28T01:40:19;100143.00;;;20.77
82006;BMP280;71529;47.484;19.064;2023-07-28T01:42:47;100145.28;;;20.78
82006;BMP280;71529;47.484;19.064;2023-07-28T01:45:17;100148.75;;;20.79
82006;BMP280;71529;47.484;19.064;2023-07-28T01:47:46;100151.38;;;20.60
82006;BMP280;71529;47.484;19.064;2023-07-28T01:50:14;100154.59;;;20.68
82006;BMP280;71529;47.484;19.064;2023-07-28T01:52:42;100148.38;;;20.67
82006;BMP280;71529;47.484;19.064;2023-07-28T01:55:10;100153.94;;;20.64
82006;BMP280;71529;47.484;19.064;2023-07-28T01:57:39;100148.66;;;20.60
82006;BMP280;71529;47.484;19.064;2023-07-28T02:00:07;100151.41;;;20.69
82006;BMP280;71529;47.484;19.064;2023-07-28T02:02:37;100151.31;;;20.51
82006;BMP280;71529;47.484;19.064;2023-07-28T02:05:18;100160.06;;;20.55
82006;BMP280;71529;47.484;19.064;2023-07-28T02:07:46;100150.16;;;20.61
82006;BMP280;71529;47.484;19.064;2023-07-28T02:10:14;100146.25;;;20.62
82006;BMP280;71529;47.484;19.064;2023-07-28T02:12:43;100150.50;;;20.63
82006;BMP280;71529;47.484;19.064;2023-07-28T02:15:11;100134.84;;;20.45
82006;BMP280;71529;47.484;19.064;2023-07-28T02:17:41;100152.38;;;20.53
82006;BMP280;71529;47.484;19.064;2023-07-28T02:20:09;100156.31;;;20.62
82006;BMP280;71529;47.484;19.064;2023-07-28T02:22:39;100154.63;;;20.55
82006;BMP280;71529;47.484;19.064;2023-07-28T02:25:08;100156.16;;;20.56
82006;BMP280;71529;47.484;19.064;2023-07-28T02:27:36;100147.19;;;20.68
82006;BMP280;71529;47.484;19.064;2023-07-28T02:30:06;100160.69;;;20.59
82006;BMP280;71529;47.484;19.064;2023-07-28T02:32:34;100151.50;;;20.57
82006;BMP280;71529;47.484;19.064;2023-07-28T02:35:04;100156.16;;;20.56
82006;BMP280;71529;47.484;19.064;2023-07-28T02:37:32;100148.28;;;20.49
82006;BMP280;71529;47.484;19.064;2023-07-28T02:40:00;100148.28;;;20.49
82006;BMP280;71529;47.484;19.064;2023-07-28T02:42:28;100145.25;;;20.47
82006;BMP280;71529;47.484;19.064;2023-07-28T02:44:57;100139.81;;;20.47
82006;BMP280;71529;47.484;19.064;2023-07-28T02:47:25;100138.75;;;20.44
82006;BMP280;71529;47.484;19.064;2023-07-28T02:49:53;100145.69;;;20.45
82006;BMP280;71529;47.484;19.064;2023-07-28T02:52:22;100146.44;;;20.46
82006;BMP280;71529;47.484;19.064;2023-07-28T02:54:50;100147.28;;;20.56
82006;BMP280;71529;47.484;19.064;2023-07-28T02:57:18;100139.00;;;20.59
82006;BMP280;71529;47.484;19.064;2023-07-28T02:59:46;100141.47;;;20.44
82006;BMP280;71529;47.484;19.064;2023-07-28T03:02:14;100147.03;;;20.41
82006;BMP280;71529;47.484;19.064;2023-07-28T03:04:42;100144.78;;;20.26
82006;BMP280;71529;47.484;19.064;2023-07-28T03:07:10;100127.03;;;20.25
82006;BMP280;71529;47.484;19.064;2023-07-28T03:09:40;100140.75;;;20.31
82006;BMP280;71529;47.484;19.064;2023-07-28T03:12:08;100143.97;;;20.16
82006;BMP280;71529;47.484;19.064;2023-07-28T03:14:36;100138.66;;;20.13
82006;BMP280;71529;47.484;19.064;2023-07-28T03:17:04;100139.53;;;20.10
82006;BMP280;71529;47.484;19.064;2023-07-28T03:19:32;100142.25;;;20.10
82006;BMP280;71529;47.484;19.064;2023-07-28T03:22:00;100137.66;;;20.20
82006;BMP280;71529;47.484;19.064;2023-07-28T03:24:28;100135.59;;;20.24
82006;BMP280;71529;47.484;19.064;2023-07-28T03:26:57;100142.75;;;20.17
82006;BMP280;71529;47.484;19.064;2023-07-28T03:29:25;100136.31;;;20.02
82006;BMP280;71529;47.484;19.064;2023-07-28T03:31:53;100129.28;;;20.05
82006;BMP280;71529;47.484;19.064;2023-07-28T03:34:21;100114.75;;;19.98
82006;BMP280;71529;47.484;19.064;2023-07-28T03:36:49;100112.34;;;20.00
82006;BMP280;71529;47.484;19.064;2023-07-28T03:39:17;100119.03;;;20.09
82006;BMP280;71529;47.484;19.064;2023-07-28T03:41:45;100123.06;;;20.04
82006;BMP280;71529;47.484;19.064;2023-07-28T03:44:15;100132.50;;;20.12
82006;BMP280;71529;47.484;19.064;2023-07-28T03:46:43;100136.81;;;20.10
82006;BMP280;71529;47.484;19.064;2023-07-28T03:49:11;100127.50;;;20.11
82006;BMP280;71529;47.484;19.064;2023-07-28T03:51:39;100121.34;;;20.10
82006;BMP280;71529;47.484;19.064;2023-07-28T03:54:07;100130.00;;;20.05
82006;BMP280;71529;47.484;19.064;2023-07-28T03:56:35;100128.53;;;20.26
82006;BMP280;71529;47.484;19.064;2023-07-28T03:59:03;100137.22;;;20.21
82006;BMP280;71529;47.484;19.064;2023-07-28T04:01:33;100130.03;;;20.27
82006;BMP280;71529;47.484;19.064;2023-07-28T04:04:01;100134.81;;;20.23
82006;BMP280;71529;47.484;19.064;2023-07-28T04:06:41;100131.84;;;20.30
82006;BMP280;71529;47.484;19.064;2023-07-28T04:09:11;100138.22;;;20.14
82006;BMP280;71529;47.484;19.064;2023-07-28T04:11:39;100153.50;;;20.21
82006;BMP280;71529;47.484;19.064;2023-07-28T04:14:07;100146.00;;;20.25
82006;BMP280;71529;47.484;19.064;2023-07-28T04:16:36;100145.53;;;20.27
82006;BMP280;71529;47.484;19.064;2023-07-28T04:19:04;100155.41;;;20.33
82006;BMP280;71529;47.484;19.064;2023-07-28T04:21:32;100152.50;;;20.28
82006;BMP280;71529;47.484;19.064;2023-07-28T04:24:00;100150.94;;;20.40
82006;BMP280;71529;47.484;19.064;2023-07-28T04:26:28;100145.31;;;20.34
82006;BMP280;71529;47.484;19.064;2023-07-28T04:28:56;100144.56;;;20.33
82006;BMP280;71529;47.484;19.064;2023-07-28T04:31:25;100149.78;;;20.28
82006;BMP280;71529;47.484;19.064;2023-07-28T04:33:55;100135.53;;;20.36
82006;BMP280;71529;47.484;19.064;2023-07-28T04:36:23;100145.19;;;20.38
82006;BMP280;71529;47.484;19.064;2023-07-28T04:38:51;100144.03;;;20.48
82006;BMP280;71529;47.484;19.064;2023-07-28T04:41:19;100143.09;;;20.42
82006;BMP280;71529;47.484;19.064;2023-07-28T04:43:47;100146.44;;;20.46
82006;BMP280;71529;47.484;19.064;2023-07-28T04:46:15;100135.97;;;20.57
82006;BMP280;71529;47.484;19.064;2023-07-28T04:48:43;100130.53;;;20.57
82006;BMP280;71529;47.484;19.064;2023-07-28T04:51:13;100125.75;;;20.61
82006;BMP280;71529;47.484;19.064;2023-07-28T04:53:41;100117.44;;;20.56
82006;BMP280;71529;47.484;19.064;2023-07-28T04:56:09;100110.69;;;20.69
82006;BMP280;71529;47.484;19.064;2023-07-28T04:58:37;100106.16;;;20.66
82006;BMP280;71529;47.484;19.064;2023-07-28T05:01:05;100113.41;;;20.69
82006;BMP280;71529;47.484;19.064;2023-07-28T05:03:36;100114.19;;;20.70
82006;BMP280;71529;47.484;19.064;2023-07-28T05:06:04;100118.53;;;20.67
82006;BMP280;71529;47.484;19.064;2023-07-28T05:08:33;100125.34;;;20.72
82006;BMP280;71529;47.484;19.064;2023-07-28T05:11:01;100130.84;;;20.81
82006;BMP280;71529;47.484;19.064;2023-07-28T05:13:29;100132.75;;;20.71
82006;BMP280;71529;47.484;19.064;2023-07-28T05:15:57;100132.41;;;20.69
82006;BMP280;71529;47.484;19.064;2023-07-28T05:18:26;100122.78;;;20.78
82006;BMP280;71529;47.484;19.064;2023-07-28T05:20:54;100130.06;;;20.81
82006;BMP280;71529;47.484;19.064;2023-07-28T05:23:22;100122.31;;;20.70
82006;BMP280;71529;47.484;19.064;2023-07-28T05:25:51;100114.03;;;20.74
82006;BMP280;71529;47.484;19.064;2023-07-28T05:28:19;100110.41;;;20.67
82006;BMP280;71529;47.484;19.064;2023-07-28T05:30:47;100111.53;;;20.79
82006;BMP280;71529;47.484;19.064;2023-07-28T05:33:15;100124.50;;;20.84
82006;BMP280;71529;47.484;19.064;2023-07-28T05:35:43;100130.13;;;20.90
82006;BMP280;71529;47.484;19.064;2023-07-28T05:38:11;100134.03;;;20.89
82006;BMP280;71529;47.484;19.064;2023-07-28T05:40:39;100130.69;;;20.85
82006;BMP280;71529;47.484;19.064;2023-07-28T05:43:09;100134.94;;;20.95
82006;BMP280;71529;47.484;19.064;2023-07-28T05:45:37;100134.94;;;20.95
82006;BMP280;71529;47.484;19.064;2023-07-28T05:48:05;100132.25;;;20.95
82006;BMP280;71529;47.484;19.064;2023-07-28T05:50:37;100144.28;;;20.85
82006;BMP280;71529;47.484;19.064;2023-07-28T05:53:05;100153.59;;;20.84
82006;BMP280;71529;47.484;19.064;2023-07-28T05:55:34;100169.00;;;20.87
82006;BMP280;71529;47.484;19.064;2023-07-28T05:58:02;100164.47;;;20.84
82006;BMP280;71529;47.484;19.064;2023-07-28T06:00:31;100164.91;;;20.82
82006;BMP280;71529;47.484;19.064;2023-07-28T06:02:59;100159.66;;;20.88
82006;BMP280;71529;47.484;19.064;2023-07-28T06:05:27;100168.88;;;20.91
82006;BMP280;71529;47.484;19.064;2023-07-28T06:07:55;100164.03;;;20.85
82006;BMP280;71529;47.484;19.064;2023-07-28T06:10:23;100164.69;;;20.99
82006;BMP280;71529;47.484;19.064;2023-07-28T06:12:51;100169.97;;;21.02
82006;BMP280;71529;47.484;19.064;2023-07-28T06:15:19;100158.22;;;21.05
82006;BMP280;71529;47.484;19.064;2023-07-28T06:17:49;100167.91;;;21.06
82006;BMP280;71529;47.484;19.064;2023-07-28T06:20:17;100166.72;;;21.17
82006;BMP280;71529;47.484;19.064;2023-07-28T06:22:44;100164.78;;;21.17
82006;BMP280;71529;47.484;19.064;2023-07-28T06:25:12;100159.53;;;21.23
82006;BMP280;71529;47.484;19.064;2023-07-28T06:27:40;100161.94;;;21.30
82006;BMP280;71529;47.484;19.064;2023-07-28T06:30:10;100164.06;;;21.35
82006;BMP280;71529;47.484;19.064;2023-07-28T06:32:38;100155.03;;;21.38
82006;BMP280;71529;47.484;19.064;2023-07-28T06:35:08;100159.72;;;21.47
82006;BMP280;71529;47.484;19.064;2023-07-28T06:37:36;100162.28;;;21.41
82006;BMP280;71529;47.484;19.064;2023-07-28T06:40:06;100163.03;;;21.42
82006;BMP280;71529;47.484;19.064;2023-07-28T06:42:36;100165.63;;;21.46
82006;BMP280;71529;47.484;19.064;2023-07-28T06:45:05;100164.59;;;21.52
82006;BMP280;71529;47.484;19.064;2023-07-28T06:47:33;100151.63;;;21.66
82006;BMP280;71529;47.484;19.064;2023-07-28T06:50:01;100160.78;;;21.59
82006;BMP280;71529;47.484;19.064;2023-07-28T06:52:30;100152.53;;;21.72
82006;BMP280;71529;47.484;19.064;2023-07-28T06:54:58;100154.81;;;21.73
82006;BMP280;71529;47.484;19.064;2023-07-28T06:57:26;100146.63;;;21.83
82006;BMP280;71529;47.484;19.064;2023-07-28T06:59:54;100143.78;;;21.86
82006;BMP280;71529;47.484;19.064;2023-07-28T07:02:22;100133.19;;;21.88
82006;BMP280;71529;47.484;19.064;2023-07-28T07:04:50;100123.09;;;21.89
82006;BMP280;71529;47.484;19.064;2023-07-28T07:07:18;100124.63;;;21.90
82006;BMP280;71529;47.484;19.064;2023-07-28T07:09:48;100135.50;;;21.90
82006;BMP280;71529;47.484;19.064;2023-07-28T07:12:16;100127.63;;;21.92
82006;BMP280;71529;47.484;19.064;2023-07-28T07:14:44;100138.19;;;21.99
82006;BMP280;71529;47.484;19.064;2023-07-28T07:17:12;100130.34;;;22.01
82006;BMP280;71529;47.484;19.064;2023-07-28T07:19:40;100133.50;;;22.18
82006;BMP280;71529;47.484;19.064;2023-07-28T07:22:08;100128.53;;;22.26
82006;BMP280;71529;47.484;19.064;2023-07-28T07:24:36;100127.44;;;22.32
82006;BMP280;71529;47.484;19.064;2023-07-28T07:27:06;100121.84;;;22.36
82006;BMP280;71529;47.484;19.064;2023-07-28T07:29:37;100120.16;;;22.39
82006;BMP280;71529;47.484;19.064;2023-07-28T07:32:06;100108.13;;;22.30
82006;BMP280;71529;47.484;19.064;2023-07-28T07:34:34;100117.00;;;22.40
82006;BMP280;71529;47.484;19.064;2023-07-28T07:37:04;100114.13;;;22.44
82006;BMP280;71529;47.484;19.064;2023-07-28T07:39:32;100113.94;;;22.47
82006;BMP280;71529;47.484;19.064;2023-07-28T07:42:00;100105.63;;;22.51
82006;BMP280;71529;47.484;19.064;2023-07-28T07:44:30;100103.03;;;22.57
82006;BMP280;71529;47.484;19.064;2023-07-28T07:47:00;100103.94;;;22.63
82006;BMP280;71529;47.484;19.064;2023-07-28T07:49:28;100107.81;;;22.71
82006;BMP280;71529;47.484;19.064;2023-07-28T07:51:56;100103.78;;;22.91
82006;BMP280;71529;47.484;19.064;2023-07-28T07:54:24;100102.28;;;22.89
82006;BMP280;71529;47.484;19.064;2023-07-28T07:56:52;100103.78;;;22.91
82006;BMP280;71529;47.484;19.064;2023-07-28T07:59:20;100096.53;;;22.87
82006;BMP280;71529;47.484;19.064;2023-07-28T08:01:50;100092.34;;;22.86
82006;BMP280;71529;47.484;19.064;2023-07-28T08:04:18;100101.25;;;22.87
82006;BMP280;71529;47.484;19.064;2023-07-28T08:06:46;100098.59;;;23.02
82006;BMP280;71529;47.484;19.064;2023-07-28T08:09:14;100102.72;;;22.97
82006;BMP280;71529;47.484;19.064;2023-07-28T08:11:42;100097.69;;;23.05
82006;BMP280;71529;47.484;19.064;2023-07-28T08:14:10;100098.41;;;23.05
82006;BMP280;71529;47.484;19.064;2023-07-28T08:16:38;100112.03;;;23.05
82006;BMP280;71529;47.484;19.064;2023-07-28T08:19:08;100100.09;;;23.03
82006;BMP280;71529;47.484;19.064;2023-07-28T08:21:36;100105.69;;;23.09
82006;BMP280;71529;47.484;19.064;2023-07-28T08:24:05;100097.63;;;23.14
82006;BMP280;71529;47.484;19.064;2023-07-28T08:26:33;100093.69;;;23.15
82006;BMP280;71529;47.484;19.064;2023-07-28T08:29:01;100101.50;;;23.22
82006;BMP280;71529;47.484;19.064;2023-07-28T08:31:29;100116.34;;;23.21
82006;BMP280;71529;47.484;19.064;2023-07-28T08:33:57;100110.13;;;23.21
82006;BMP280;71529;47.484;19.064;2023-07-28T08:36:26;100105.09;;;23.29
82006;BMP280;71529;47.484;19.064;2023-07-28T08:38:54;100101.91;;;23.30
82006;BMP280;71529;47.484;19.064;2023-07-28T08:41:22;100102.69;;;23.31
82006;BMP280;71529;47.484;19.064;2023-07-28T08:43:50;100097.84;;;23.25
82006;BMP280;71529;47.484;19.064;2023-07-28T08:46:19;100095.13;;;23.25
82006;BMP280;71529;47.484;19.064;2023-07-28T08:48:48;100079.13;;;23.18
82006;BMP280;71529;47.484;19.064;2023-07-28T08:51:16;100076.63;;;23.30
82006;BMP280;71529;47.484;19.064;2023-07-28T08:53:45;100078.16;;;23.31
82006;BMP280;71529;47.484;19.064;2023-07-28T08:56:13;100088.97;;;23.40
82006;BMP280;71529;47.484;19.064;2023-07-28T08:58:41;100070.63;;;23.40
82006;BMP280;71529;47.484;19.064;2023-07-28T09:01:10;100073.31;;;23.50
82006;BMP280;71529;47.484;19.064;2023-07-28T09:03:39;100072.84;;;23.51
82006;BMP280;71529;47.484;19.064;2023-07-28T09:06:08;100066.28;;;23.58
82006;BMP280;71529;47.484;19.064;2023-07-28T09:08:36;100058.69;;;23.62
82006;BMP280;71529;47.484;19.064;2023-07-28T09:11:05;100056.41;;;23.60
82006;BMP280;71529;47.484;19.064;2023-07-28T09:13:36;100051.16;;;23.57
82006;BMP280;71529;47.484;19.064;2023-07-28T09:16:04;100053.88;;;23.57
82006;BMP280;71529;47.484;19.064;2023-07-28T09:18:32;100051.81;;;23.67
82006;BMP280;71529;47.484;19.064;2023-07-28T09:21:00;100048.00;;;23.73
82006;BMP280;71529;47.484;19.064;2023-07-28T09:23:29;100056.50;;;23.81
82006;BMP280;71529;47.484;19.064;2023-07-28T09:26:01;100055.03;;;23.80
82006;BMP280;71529;47.484;19.064;2023-07-28T09:28:38;100054.53;;;23.82
82006;BMP280;71529;47.484;19.064;2023-07-28T09:31:07;100048.91;;;23.85
82006;BMP280;71529;47.484;19.064;2023-07-28T09:33:37;100057.19;;;23.91
82006;BMP280;71529;47.484;19.064;2023-07-28T09:36:10;100061.81;;;24.00
82006;BMP280;71529;47.484;19.064;2023-07-28T09:38:39;100040.72;;;24.00
82006;BMP280;71529;47.484;19.064;2023-07-28T09:41:09;100051.19;;;24.02
82006;BMP280;71529;47.484;19.064;2023-07-28T09:43:40;100056.44;;;24.05
82006;BMP280;71529;47.484;19.064;2023-07-28T09:46:10;100052.00;;;24.08
82006;BMP280;71529;47.484;19.064;2023-07-28T09:48:39;100051.72;;;24.06
82006;BMP280;71529;47.484;19.064;2023-07-28T09:51:12;100052.00;;;24.08
82006;BMP280;71529;47.484;19.064;2023-07-28T09:53:46;100051.25;;;24.07
82006;BMP280;71529;47.484;19.064;2023-07-28T09:56:15;100029.34;;;24.02
82006;BMP280;71529;47.484;19.064;2023-07-28T09:58:49;100032.63;;;24.06
82006;BMP280;71529;47.484;19.064;2023-07-28T10:01:19;100034.03;;;24.16
82006;BMP280;71529;47.484;19.064;2023-07-28T10:03:49;100030.16;;;24.23
82006;BMP280;71529;47.484;19.064;2023-07-28T10:06:17;100025.19;;;24.21
82006;BMP280;71529;47.484;19.064;2023-07-28T10:08:45;100030.25;;;24.28
82006;BMP280;71529;47.484;19.064;2023-07-28T10:11:14;100026.78;;;24.28
82006;BMP280;71529;47.484;19.064;2023-07-28T10:13:43;100027.78;;;24.30
82006;BMP280;71529;47.484;19.064;2023-07-28T10:16:15;100024.63;;;24.32
82006;BMP280;71529;47.484;19.064;2023-07-28T10:18:51;100027.59;;;24.34
82006;BMP280;71529;47.484;19.064;2023-07-28T10:21:20;100022.22;;;24.40
82006;BMP280;71529;47.484;19.064;2023-07-28T10:23:54;100031.72;;;24.44
82006;BMP280;71529;47.484;19.064;2023-07-28T10:26:35;100024.84;;;24.49
82006;BMP280;71529;47.484;19.064;2023-07-28T10:29:08;100022.91;;;24.55
82006;BMP280;71529;47.484;19.064;2023-07-28T10:31:49;100024.44;;;24.56
82006;BMP280;71529;47.484;19.064;2023-07-28T10:34:17;100025.94;;;24.57
82006;BMP280;71529;47.484;19.064;2023-07-28T10:36:46;100019.31;;;24.64
82006;BMP280;71529;47.484;19.064;2023-07-28T10:39:15;100026.38;;;24.70
82006;BMP280;71529;47.484;19.064;2023-07-28T10:42:00;100031.69;;;24.80
82006;BMP280;71529;47.484;19.064;2023-07-28T10:44:29;100031.03;;;24.85
82006;BMP280;71529;47.484;19.064;2023-07-28T10:46:58;100033.75;;;24.85
82006;BMP280;71529;47.484;19.064;2023-07-28T10:49:26;100026.09;;;24.89
82006;BMP280;71529;47.484;19.064;2023-07-28T10:51:54;100034.34;;;24.95
82006;BMP280;71529;47.484;19.064;2023-07-28T10:54:23;100028.22;;;25.00
82006;BMP280;71529;47.484;19.064;2023-07-28T10:56:51;100027.78;;;25.07
82006;BMP280;71529;47.484;19.064;2023-07-28T10:59:19;100020.59;;;25.09
82006;BMP280;71529;47.484;19.064;2023-07-28T11:01:47;100021.16;;;25.14
82006;BMP280;71529;47.484;19.064;2023-07-28T11:04:18;100004.41;;;25.06
82006;BMP280;71529;47.484;19.064;2023-07-28T11:06:48;100019.97;;;25.20
82006;BMP280;71529;47.484;19.064;2023-07-28T11:09:17;100020.88;;;25.32
82006;BMP280;71529;47.484;19.064;2023-07-28T11:11:46;100016.16;;;25.33
82006;BMP280;71529;47.484;19.064;2023-07-28T11:14:15;100012.38;;;25.30
82006;BMP280;71529;47.484;19.064;2023-07-28T11:16:45;100017.63;;;25.34
82006;BMP280;71529;47.484;19.064;2023-07-28T11:19:17;100026.38;;;25.38
82006;BMP280;71529;47.484;19.064;2023-07-28T11:21:52;100015.28;;;25.47
82006;BMP280;71529;47.484;19.064;2023-07-28T11:24:21;100019.03;;;25.50
82006;BMP280;71529;47.484;19.064;2023-07-28T11:26:49;100028.78;;;25.56
82006;BMP280;71529;47.484;19.064;2023-07-28T11:29:18;100017.13;;;25.56
82006;BMP280;71529;47.484;19.064;2023-07-28T11:31:47;100026.53;;;25.55
82006;BMP280;71529;47.484;19.064;2023-07-28T11:34:17;100013.13;;;25.57
82006;BMP280;71529;47.484;19.064;2023-07-28T11:36:45;100016.13;;;25.59
82006;BMP280;71529;47.484;19.064;2023-07-28T11:39:14;100006.47;;;25.63
82006;BMP280;71529;47.484;19.064;2023-07-28T11:41:43;100019.19;;;25.67
82006;BMP280;71529;47.484;19.064;2023-07-28T11:44:12;100015.25;;;25.73
82006;BMP280;71529;47.484;19.064;2023-07-28T11:46:42;100014.50;;;25.73
82006;BMP280;71529;47.484;19.064;2023-07-28T11:49:13;100003.81;;;25.75
82006;BMP280;71529;47.484;19.064;2023-07-28T11:51:44;100010.09;;;25.81
82006;BMP280;71529;47.484;19.064;2023-07-28T11:54:13;100009.88;;;25.85
82006;BMP280;71529;47.484;19.064;2023-07-28T11:56:42;100008.91;;;25.88
82006;BMP280;71529;47.484;19.064;2023-07-28T11:59:10;100000.41;;;25.86
82006;BMP280;71529;47.484;19.064;2023-07-28T12:01:54;99999.00;;;25.96
82006;BMP280;71529;47.484;19.064;2023-07-28T12:04:26;99994.78;;;25.95
82006;BMP280;71529;47.484;19.064;2023-07-28T12:07:07;99994.31;;;26.02
82006;BMP280;71529;47.484;19.064;2023-07-28T12:09:51;99991.13;;;26.09
82006;BMP280;71529;47.484;19.064;2023-07-28T12:12:23;100000.06;;;26.10
82006;BMP280;71529;47.484;19.064;2023-07-28T12:14:53;99991.41;;;26.11
82006;BMP280;71529;47.484;19.064;2023-07-28T12:17:25;99984.69;;;26.12
82006;BMP280;71529;47.484;19.064;2023-07-28T12:20:15;99982.69;;;26.13
82006;BMP280;71529;47.484;19.064;2023-07-28T12:22:45;99972.25;;;26.11
82006;BMP280;71529;47.484;19.064;2023-07-28T12:25:14;99983.44;;;26.13
82006;BMP280;71529;47.484;19.064;2023-07-28T12:27:43;99974.00;;;26.09
82006;BMP280;71529;47.484;19.064;2023-07-28T12:30:11;99968.00;;;26.10
82006;BMP280;71529;47.484;19.064;2023-07-28T12:32:43;99969.22;;;26.09
82006;BMP280;71529;47.484;19.064;2023-07-28T12:35:14;99962.28;;;26.14
82006;BMP280;71529;47.484;19.064;2023-07-28T12:37:42;99966.53;;;26.15
82006;BMP280;71529;47.484;19.064;2023-07-28T12:40:15;99960.84;;;26.18
82006;BMP280;71529;47.484;19.064;2023-07-28T12:42:46;99957.38;;;26.24
82006;BMP280;71529;47.484;19.064;2023-07-28T12:45:17;99954.63;;;26.24
82006;BMP280;71529;47.484;19.064;2023-07-28T12:47:48;99951.19;;;26.29
82006;BMP280;71529;47.484;19.064;2023-07-28T12:50:24;99960.63;;;26.33
82006;BMP280;71529;47.484;19.064;2023-07-28T12:52:53;99953.19;;;26.39
82006;BMP280;71529;47.484;19.064;2023-07-28T12:55:25;99958.19;;;26.47
82006;BMP280;71529;47.484;19.064;2023-07-28T12:57:54;99956.97;;;26.53
82006;BMP280;71529;47.484;19.064;2023-07-28T13:00:22;99961.22;;;26.49
82006;BMP280;71529;47.484;19.064;2023-07-28T13:02:53;99964.16;;;26.39
82006;BMP280;71529;47.484;19.064;2023-07-28T13:05:21;99963.91;;;26.43
82006;BMP280;71529;47.484;19.064;2023-07-28T13:07:49;99966.16;;;26.45
82006;BMP280;71529;47.484;19.064;2023-07-28T13:10:19;99966.69;;;26.49
82006;BMP280;71529;47.484;19.064;2023-07-28T13:12:52;99963.97;;;26.49
82006;BMP280;71529;47.484;19.064;2023-07-28T13:15:23;99961.47;;;26.51
82006;BMP280;71529;47.484;19.064;2023-07-28T13:17:51;99955.00;;;26.48
82006;BMP280;71529;47.484;19.064;2023-07-28T13:20:19;99961.22;;;26.49
82006;BMP280;71529;47.484;19.064;2023-07-28T13:22:47;99957.22;;;26.50
82006;BMP280;71529;47.484;19.064;2023-07-28T13:25:15;99962.94;;;26.46
82006;BMP280;71529;47.484;19.064;2023-07-28T13:27:44;99961.19;;;26.43
82006;BMP280;71529;47.484;19.064;2023-07-28T13:30:13;99950.69;;;26.36
82006;BMP280;71529;47.484;19.064;2023-07-28T13:32:41;99953.72;;;26.38
82006;BMP280;71529;47.484;19.064;2023-07-28T13:35:10;99959.63;;;26.31
82006;BMP280;71529;47.484;19.064;2023-07-28T13:37:38;99965.88;;;26.31
82006;BMP280;71529;47.484;19.064;2023-07-28T13:40:07;99958.41;;;26.32
82006;BMP280;71529;47.484;19.064;2023-07-28T13:42:38;99959.88;;;26.27
82006;BMP280;71529;47.484;19.064;2023-07-28T13:45:08;99958.34;;;26.20
82006;BMP280;71529;47.484;19.064;2023-07-28T13:47:38;99959.31;;;26.17
82006;BMP280;71529;47.484;19.064;2023-07-28T13:50:06;99958.28;;;26.09
82006;BMP280;71529;47.484;19.064;2023-07-28T13:52:35;99960.50;;;26.05
82006;BMP280;71529;47.484;19.064;2023-07-28T13:55:03;99966.50;;;26.09
82006;BMP280;71529;47.484;19.064;2023-07-28T13:57:35;99955.75;;;26.00